Aviation Digital Data Service (ADDS)

Output produced by METARs form (1721 UTC 16 June 2019)
found at http://www.aviationweather.gov/metar/data/
 
METAR text: VOPB 161300Z 23008KT 3500 BR SCT010 BKN090 28/26 Q1006 NOSIG
Conditions at: VOPB (PORT BLAIR , IN) observed 1300 UTC 16 June 2019
Temperature: 28.0°C (82°F)
Dewpoint: 26.0°C (79°F) [RH = 89%]
Pressure (altimeter): 29.70 inches Hg (1006.0 mb)
Winds: from the SW (230 degrees) at 9 MPH (8 knots; 4.1 m/s)
Visibility: 2.17 miles (3.49 km)
Ceiling: 9000 feet AGL
Clouds: scattered clouds at 1000 feet AGL
broken clouds at 9000 feet AGL
Weather: BR  (mist)

METAR text: VOPB 161200Z 23010KT 4000 BR SCT010 BKN090 29/27 Q1005 NOSIG
Conditions at: VOPB (PORT BLAIR , IN) observed 1200 UTC 16 June 2019
Temperature: 29.0°C (84°F)
Dewpoint: 27.0°C (81°F) [RH = 89%]
Pressure (altimeter): 29.68 inches Hg (1005.0 mb)
Winds: from the SW (230 degrees) at 12 MPH (10 knots; 5.1 m/s)
Visibility: 2.49 miles (4.01 km)
Ceiling: 9000 feet AGL
Clouds: scattered clouds at 1000 feet AGL
broken clouds at 9000 feet AGL
Weather: BR  (mist)

METAR text: VOPB 161100Z 23010KT 5000 BR SCT010 BKN090 29/27 Q1005 ZNOSIG
Conditions at: VOPB (PORT BLAIR , IN) observed 1100 UTC 16 June 2019
Temperature: 29.0°C (84°F)
Dewpoint: 27.0°C (81°F) [RH = 89%]
Pressure (altimeter): 29.68 inches Hg (1005.0 mb)
Winds: from the SW (230 degrees) at 12 MPH (10 knots; 5.1 m/s)
Visibility: 3 miles ( 5 km)
Ceiling: 9000 feet AGL
Clouds: scattered clouds at 1000 feet AGL
broken clouds at 9000 feet AGL
Weather: BR  (mist)

METAR text: VOPB 161000Z 23010G16KT 5000 BR SCT010 FEW018 BKN090 29/27 Q1005 TEMPO -RA
Conditions at: VOPB (PORT BLAIR , IN) observed 1000 UTC 16 June 2019
Temperature: 29.0°C (84°F)
Dewpoint: 27.0°C (81°F) [RH = 89%]
Pressure (altimeter): 29.68 inches Hg (1005.0 mb)
Winds: from the SW (230 degrees) at 12 MPH (10 knots; 5.1 m/s)
gusting to 18 MPH (16 knots; 8.2 m/s)
Visibility: 3 miles ( 5 km)
Ceiling: 9000 feet AGL
Clouds: scattered clouds at 1000 feet AGL
few clouds at 1800 feet AGL
broken clouds at 9000 feet AGL
Weather: BR  (mist)

METAR text: VOPB 160900Z 23010KT 5000 BR SCT010 FEW018TCU BKN090 29/27 Q1005 TEMPO 3000 RA
Conditions at: VOPB (PORT BLAIR , IN) observed 0900 UTC 16 June 2019
Temperature: 29.0°C (84°F)
Dewpoint: 27.0°C (81°F) [RH = 89%]
Pressure (altimeter): 29.68 inches Hg (1005.0 mb)
Winds: from the SW (230 degrees) at 12 MPH (10 knots; 5.1 m/s)
Visibility: 3 miles ( 5 km)
Ceiling: 9000 feet AGL
Clouds: scattered clouds at 1000 feet AGL
few clouds at 1800 feet AGL
broken clouds at 9000 feet AGL
Weather: BR  (mist)

METAR text: VOPB 160800Z 22011KT 5000 BR SCT010 FEW018 BKN090 30/26 Q1006 TEMPO -RA
Conditions at: VOPB (PORT BLAIR , IN) observed 0800 UTC 16 June 2019
Temperature: 30.0°C (86°F)
Dewpoint: 26.0°C (79°F) [RH = 79%]
Pressure (altimeter): 29.70 inches Hg (1006.0 mb)
Winds: from the SW (220 degrees) at 13 MPH (11 knots; 5.7 m/s)
Visibility: 3 miles ( 5 km)
Ceiling: 9000 feet AGL
Clouds: scattered clouds at 1000 feet AGL
few clouds at 1800 feet AGL
broken clouds at 9000 feet AGL
Weather: BR  (mist)

METAR text: VOPB 160600Z VRB02KT 5000 VCSH SCT008 BKN090 27/24 Q1007 TEMPO DZ
Conditions at: VOPB (PORT BLAIR , IN) observed 0600 UTC 16 June 2019
Temperature: 27.0°C (81°F)
Dewpoint: 24.0°C (75°F) [RH = 84%]
Pressure (altimeter): 29.73 inches Hg (1007.0 mb)
Winds: variable direction winds at 2 MPH (2 knots; 1.0 m/s)
Visibility: 3 miles ( 5 km)
Ceiling: 9000 feet AGL
Clouds: scattered clouds at 800 feet AGL
broken clouds at 9000 feet AGL
Weather: VCSH  (showers in vicinity)

METAR text: VOPB 160500Z 27006KT 5000 VCSH SCT008 BKN090 28/24 Q1009 TEMPO DZ
Conditions at: VOPB (PORT BLAIR , IN) observed 0500 UTC 16 June 2019
Temperature: 28.0°C (82°F)
Dewpoint: 24.0°C (75°F) [RH = 79%]
Pressure (altimeter): 29.79 inches Hg (1009.0 mb)
Winds: from the W (270 degrees) at 7 MPH (6 knots; 3.1 m/s)
Visibility: 3 miles ( 5 km)
Ceiling: 9000 feet AGL
Clouds: scattered clouds at 800 feet AGL
broken clouds at 9000 feet AGL
Weather: VCSH  (showers in vicinity)

METAR text: VOPB 160400Z 25010KT 5000 DZ SCT010 BKN090 30/25 Q1008 TEMPO -RA
Conditions at: VOPB (PORT BLAIR , IN) observed 0400 UTC 16 June 2019
Temperature: 30.0°C (86°F)
Dewpoint: 25.0°C (77°F) [RH = 75%]
Pressure (altimeter): 29.76 inches Hg (1008.0 mb)
Winds: from the WSW (250 degrees) at 12 MPH (10 knots; 5.1 m/s)
Visibility: 3 miles ( 5 km)
Ceiling: 9000 feet AGL
Clouds: scattered clouds at 1000 feet AGL
broken clouds at 9000 feet AGL
Weather: DZ  (moderate drizzle)

METAR text: VOPB 160300Z 25009KT 5000 VCSH SCT012 BKN090 30/25 Q1009 TEMPO DZ
Conditions at: VOPB (PORT BLAIR , IN) observed 0300 UTC 16 June 2019
Temperature: 30.0°C (86°F)
Dewpoint: 25.0°C (77°F) [RH = 75%]
Pressure (altimeter): 29.79 inches Hg (1009.0 mb)
Winds: from the WSW (250 degrees) at 10 MPH (9 knots; 4.6 m/s)
Visibility: 3 miles ( 5 km)
Ceiling: 9000 feet AGL
Clouds: scattered clouds at 1200 feet AGL
broken clouds at 9000 feet AGL
Weather: VCSH  (showers in vicinity)

METAR text: VOPB 160200Z 24008KT 6000 SCT012 SCT090 28/25 Q1008 NOSIG
Conditions at: VOPB (PORT BLAIR , IN) observed 0200 UTC 16 June 2019
Temperature: 28.0°C (82°F)
Dewpoint: 25.0°C (77°F) [RH = 84%]
Pressure (altimeter): 29.76 inches Hg (1008.0 mb)
Winds: from the WSW (240 degrees) at 9 MPH (8 knots; 4.1 m/s)
Visibility: 4 miles ( 6 km)
Ceiling: at least 12,000 feet AGL
Clouds: scattered clouds at 1200 feet AGL
scattered clouds at 9000 feet AGL
Weather: no significant weather observed at this time

METAR text: VOPB 160100Z 24008KT 6000 SCT012 SCT090 28/25 Q1008 NOSIG
Conditions at: VOPB (PORT BLAIR , IN) observed 0100 UTC 16 June 2019
Temperature: 28.0°C (82°F)
Dewpoint: 25.0°C (77°F) [RH = 84%]
Pressure (altimeter): 29.76 inches Hg (1008.0 mb)
Winds: from the WSW (240 degrees) at 9 MPH (8 knots; 4.1 m/s)
Visibility: 4 miles ( 6 km)
Ceiling: at least 12,000 feet AGL
Clouds: scattered clouds at 1200 feet AGL
scattered clouds at 9000 feet AGL
Weather: no significant weather observed at this time

METAR text: VOPB 160000Z 23005KT 5000 BR SCT010 SCT090 28/25 Q1006 NOSIG
Conditions at: VOPB (PORT BLAIR , IN) observed 0000 UTC 16 June 2019
Temperature: 28.0°C (82°F)
Dewpoint: 25.0°C (77°F) [RH = 84%]
Pressure (altimeter): 29.70 inches Hg (1006.0 mb)
Winds: from the SW (230 degrees) at 6 MPH (5 knots; 2.6 m/s)
Visibility: 3 miles ( 5 km)
Ceiling: at least 12,000 feet AGL
Clouds: scattered clouds at 1000 feet AGL
scattered clouds at 9000 feet AGL
Weather: BR  (mist)

METAR text: VOPB 151300Z 25005KT 3500 BR SCT010 BKN080 28/26 Q1006 NOSIG
Conditions at: VOPB (PORT BLAIR , IN) observed 1300 UTC 15 June 2019
Temperature: 28.0°C (82°F)
Dewpoint: 26.0°C (79°F) [RH = 89%]
Pressure (altimeter): 29.70 inches Hg (1006.0 mb)
Winds: from the WSW (250 degrees) at 6 MPH (5 knots; 2.6 m/s)
Visibility: 2.17 miles (3.49 km)
Ceiling: 8000 feet AGL
Clouds: scattered clouds at 1000 feet AGL
broken clouds at 8000 feet AGL
Weather: BR  (mist)

METAR text: VOPB 151000Z 24010KT 5000 BR SCT010 BKN080 29/26 Q1006 NOSIG
Conditions at: VOPB (PORT BLAIR , IN) observed 1000 UTC 15 June 2019
Temperature: 29.0°C (84°F)
Dewpoint: 26.0°C (79°F) [RH = 84%]
Pressure (altimeter): 29.70 inches Hg (1006.0 mb)
Winds: from the WSW (240 degrees) at 12 MPH (10 knots; 5.1 m/s)
Visibility: 3 miles ( 5 km)
Ceiling: 8000 feet AGL
Clouds: scattered clouds at 1000 feet AGL
broken clouds at 8000 feet AGL
Weather: BR  (mist)

METAR text: VOPB 150900Z 24010KT 5000 BR SCT010 BKN080 29/26 Q1006 NOSIG
Conditions at: VOPB (PORT BLAIR , IN) observed 0900 UTC 15 June 2019
Temperature: 29.0°C (84°F)
Dewpoint: 26.0°C (79°F) [RH = 84%]
Pressure (altimeter): 29.70 inches Hg (1006.0 mb)
Winds: from the WSW (240 degrees) at 12 MPH (10 knots; 5.1 m/s)
Visibility: 3 miles ( 5 km)
Ceiling: 8000 feet AGL
Clouds: scattered clouds at 1000 feet AGL
broken clouds at 8000 feet AGL
Weather: BR  (mist)

METAR text: VOPB 150800Z 24008KT 5000 BR SCT010 BKN080 28/26 Q1006 NOSIG
Conditions at: VOPB (PORT BLAIR , IN) observed 0800 UTC 15 June 2019
Temperature: 28.0°C (82°F)
Dewpoint: 26.0°C (79°F) [RH = 89%]
Pressure (altimeter): 29.70 inches Hg (1006.0 mb)
Winds: from the WSW (240 degrees) at 9 MPH (8 knots; 4.1 m/s)
Visibility: 3 miles ( 5 km)
Ceiling: 8000 feet AGL
Clouds: scattered clouds at 1000 feet AGL
broken clouds at 8000 feet AGL
Weather: BR  (mist)

METAR text: VOPB 150700Z 24007KT 5000 BR SCT010 OVC080 27/24 Q1007 TEMPO DZ
Conditions at: VOPB (PORT BLAIR , IN) observed 0700 UTC 15 June 2019
Temperature: 27.0°C (81°F)
Dewpoint: 24.0°C (75°F) [RH = 84%]
Pressure (altimeter): 29.73 inches Hg (1007.0 mb)
Winds: from the WSW (240 degrees) at 8 MPH (7 knots; 3.6 m/s)
Visibility: 3 miles ( 5 km)
Ceiling: 8000 feet AGL
Clouds: scattered clouds at 1000 feet AGL
overcast cloud deck at 8000 feet AGL
Weather: BR  (mist)

METAR text: VOPB 150600Z 23005KT 5000 BR SCT010 OVC080 27/24 Q1009 TEMPO DZ
Conditions at: VOPB (PORT BLAIR , IN) observed 0600 UTC 15 June 2019
Temperature: 27.0°C (81°F)
Dewpoint: 24.0°C (75°F) [RH = 84%]
Pressure (altimeter): 29.79 inches Hg (1009.0 mb)
Winds: from the SW (230 degrees) at 6 MPH (5 knots; 2.6 m/s)
Visibility: 3 miles ( 5 km)
Ceiling: 8000 feet AGL
Clouds: scattered clouds at 1000 feet AGL
overcast cloud deck at 8000 feet AGL
Weather: BR  (mist)